Time;durP1;ratioP1;P1;durP2;ratioP2;P2;SDS_P1;SDS_P2;PMS_P1;PMS_P2;Temp;Humidity;BMP_temperature;BMP_pressure;BME280_temperature;BME280_humidity;BME280_pressure;Samples;Min_cycle;Max_cycle;Signal;HPM_P1;HPM_P2
2022/07/13 00:00:36;;;;;;;;;;;;;;;14.77;50.90;101156.82;1676573;83;25752;-59
2022/07/13 00:03:04;;;;;;;;;;;;;;;14.76;50.74;101159.17;1640998;86;26071;-60
2022/07/13 00:05:31;;;;;;;;;;;;;;;14.73;51.43;101154.06;1644093;85;25871;-59
2022/07/13 00:07:58;;;;;;;;;;;;;;;14.65;51.21;101149.40;1616599;86;25855;-59
2022/07/13 00:10:25;;;;;;;;;;;;;;;14.62;51.28;101150.18;1610969;86;26137;-59
2022/07/13 00:12:51;;;;;;;;;;;;;;;14.51;51.91;101152.13;1623155;87;26185;-58
2022/07/13 00:15:18;;;;;;;;;;;;;;;14.40;52.16;101145.57;1622136;87;28322;-58
2022/07/13 00:17:44;;;;;;;;;;;;;;;14.34;52.00;101153.80;1622182;87;27253;-59
2022/07/13 00:20:11;;;;;;;;;;;;;;;14.33;52.43;101160.20;1614224;86;25834;-59
2022/07/13 00:22:39;;;;;;;;;;;;;;;14.32;52.65;101148.19;1627335;87;26243;-60
2022/07/13 00:25:08;;;;;;;;;;;;;;;14.31;52.24;101150.02;1592705;88;26221;-59
2022/07/13 00:27:34;;;;;;;;;;;;;;;14.28;52.62;101150.34;1629907;87;28465;-59
2022/07/13 00:30:00;;;;;;;;;;;;;;;14.24;52.36;101147.09;1625968;87;25750;-60
2022/07/13 00:32:27;;;;;;;;;;;;;;;14.21;52.62;101140.62;1610228;87;25839;-60
2022/07/13 00:34:53;;;;;;;;;;;;;;;14.20;53.18;101141.63;1610385;88;26103;-60
2022/07/13 00:37:20;;;;;;;;;;;;;;;14.17;52.88;101140.56;1606795;88;25968;-60
2022/07/13 00:39:46;;;;;;;;;;;;;;;14.16;53.27;101136.18;1600323;88;27565;-60
2022/07/13 00:42:13;;;;;;;;;;;;;;;14.13;53.55;101136.47;1601477;87;26098;-60
2022/07/13 00:44:39;;;;;;;;;;;;;;;14.11;52.97;101133.05;1607989;87;25799;-60
2022/07/13 00:47:07;;;;;;;;;;;;;;;14.11;53.30;101138.98;1667462;84;26122;-60
2022/07/13 00:49:34;;;;;;;;;;;;;;;14.06;53.73;101134.86;1651822;85;25808;-59
2022/07/13 00:52:00;;;;;;;;;;;;;;;14.03;53.84;101131.09;1677587;84;27481;-59
2022/07/13 00:54:29;;;;;;;;;;;;;;;14.02;54.04;101129.42;1677180;83;25497;-59
2022/07/13 00:56:57;;;;;;;;;;;;;;;14.04;53.62;101127.91;1645366;86;25796;-59
2022/07/13 00:59:25;;;;;;;;;;;;;;;14.04;54.02;101127.91;1666121;85;26726;-60
2022/07/13 01:01:54;;;;;;;;;;;;;;;14.03;54.12;101128.91;1664750;84;25793;-59
2022/07/13 01:04:23;;;;;;;;;;;;;;;13.98;54.00;101125.30;1663543;85;27645;-59
2022/07/13 01:06:53;;;;;;;;;;;;;;;13.97;54.28;101124.94;1649176;85;25884;-59
2022/07/13 01:09:20;;;;;;;;;;;;;;;13.97;54.28;101122.75;1655956;85;25510;-59
2022/07/13 01:11:47;;;;;;;;;;;;;;;13.97;54.30;101122.23;1655807;84;26278;-59
2022/07/13 01:14:13;;;;;;;;;;;;;;;13.97;54.03;101124.10;1659415;84;26104;-59
2022/07/13 01:16:41;;;;;;;;;;;;;;;13.97;54.33;101111.93;1667442;85;27488;-60
2022/07/13 01:19:12;;;;;;;;;;;;;;;13.99;54.20;101113.48;1673271;84;25889;-59
2022/07/13 01:21:45;;;;;;;;;;;;;;;13.99;53.66;101109.42;1673982;84;25867;-60
2022/07/13 01:24:12;;;;;;;;;;;;;;;14.02;53.50;101113.19;1673180;85;26178;-60
2022/07/13 01:26:39;;;;;;;;;;;;;;;14.03;53.50;101107.27;1635975;85;25449;-60
2022/07/13 01:29:07;;;;;;;;;;;;;;;14.03;53.12;101107.27;1664606;85;28167;-60
2022/07/13 01:31:39;;;;;;;;;;;;;;;14.04;53.60;101108.45;1642453;85;25721;-60
2022/07/13 01:34:06;;;;;;;;;;;;;;;14.03;53.90;101103.20;1664733;84;25989;-60
2022/07/13 01:36:34;;;;;;;;;;;;;;;14.03;54.30;101096.44;1663415;84;26066;-59
2022/07/13 01:39:02;;;;;;;;;;;;;;;13.98;54.55;101094.70;1658181;84;25717;-59
2022/07/13 01:41:29;;;;;;;;;;;;;;;13.91;54.47;101094.45;1662057;84;27405;-59
2022/07/13 01:43:57;;;;;;;;;;;;;;;13.89;54.88;101095.96;1660920;84;25922;-60
2022/07/13 01:46:25;;;;;;;;;;;;;;;13.86;54.92;101090.84;1655451;84;25780;-60
2022/07/13 01:48:54;;;;;;;;;;;;;;;13.84;54.56;101089.30;1657963;85;26126;-59
2022/07/13 01:51:21;;;;;;;;;;;;;;;13.86;54.38;101092.19;1669278;84;25816;-60
2022/07/13 01:53:47;;;;;;;;;;;;;;;13.87;54.60;101084.91;1673840;84;27484;-59
2022/07/13 01:56:14;;;;;;;;;;;;;;;13.87;54.64;101083.56;1652962;85;26812;-60
2022/07/13 01:58:40;;;;;;;;;;;;;;;13.85;55.22;101081.53;1647999;85;25837;-60
2022/07/13 02:01:07;;;;;;;;;;;;;;;13.82;55.27;101075.06;1638358;86;26146;-60
2022/07/13 02:03:34;;;;;;;;;;;;;;;13.80;55.10;101079.77;1634025;87;25751;-60
2022/07/13 02:06:00;;;;;;;;;;;;;;;13.75;55.33;101082.91;1651043;85;27523;-60
2022/07/13 02:08:29;;;;;;;;;;;;;;;13.71;55.43;101082.37;1662665;85;25774;-60
2022/07/13 02:10:57;;;;;;;;;;;;;;;13.65;55.46;101076.22;1651834;85;25440;-59
2022/07/13 02:13:24;;;;;;;;;;;;;;;13.60;55.42;101072.60;1623137;86;26118;-59
2022/07/13 02:15:50;;;;;;;;;;;;;;;13.58;55.71;101076.46;1624199;86;26519;-60
2022/07/13 02:18:18;;;;;;;;;;;;;;;13.58;55.85;101073.76;1626675;86;27707;-59
2022/07/13 02:20:45;;;;;;;;;;;;;;;13.58;55.97;101076.46;1629488;86;25815;-60
2022/07/13 02:23:11;;;;;;;;;;;;;;;13.56;55.98;101071.19;1628404;86;25894;-59
2022/07/13 02:25:38;;;;;;;;;;;;;;;13.53;56.14;101073.34;1629614;86;26701;-60
2022/07/13 02:28:10;;;;;;;;;;;;;;;13.49;56.04;101071.95;1627333;86;25775;-59
2022/07/13 02:30:34;;;;;;;;;;;;;;;13.46;55.92;101063.61;1620924;86;28253;-60
2022/07/13 02:33:01;;;;;;;;;;;;;;;13.46;56.22;101067.18;1635369;86;25945;-60
2022/07/13 02:35:30;;;;;;;;;;;;;;;13.46;56.17;101063.61;1631227;86;25454;-60
2022/07/13 02:37:58;;;;;;;;;;;;;;;13.43;56.39;101065.28;1622145;86;26186;-59
2022/07/13 02:40:26;;;;;;;;;;;;;;;13.41;56.59;101066.75;1618068;86;26629;-60
2022/07/13 02:42:54;;;;;;;;;;;;;;;13.40;56.79;101075.86;1622383;86;27506;-59
2022/07/13 02:45:20;;;;;;;;;;;;;;;13.38;56.72;101072.92;1626188;86;26017;-59
2022/07/13 02:47:49;;;;;;;;;;;;;;;13.36;56.56;101073.08;1618908;86;25874;-60
2022/07/13 02:50:16;;;;;;;;;;;;;;;13.32;56.56;101073.01;1618488;87;26117;-59
2022/07/13 02:52:42;;;;;;;;;;;;;;;13.29;56.75;101070.11;1621029;86;25780;-60
2022/07/13 02:55:10;;;;;;;;;;;;;;;13.28;56.80;101068.40;1624495;87;27529;-59
2022/07/13 02:57:38;;;;;;;;;;;;;;;13.27;56.96;101063.16;1628451;86;26000;-60
2022/07/13 03:00:07;;;;;;;;;;;;;;;13.29;57.25;101067.41;1628474;86;25865;-60
2022/07/13 03:02:33;;;;;;;;;;;;;;;13.30;56.93;101065.06;1633917;86;27040;-60
2022/07/13 03:05:01;;;;;;;;;;;;;;;13.34;57.11;101067.48;1682424;83;25505;-59
2022/07/13 03:07:28;;;;;;;;;;;;;;;13.36;57.24;101067.67;1699253;83;29094;-60
2022/07/13 03:09:54;;;;;;;;;;;;;;;13.37;57.16;101067.16;1701968;83;25767;-60
2022/07/13 03:12:21;;;;;;;;;;;;;;;13.38;57.41;101064.81;1672645;83;25791;-60
2022/07/13 03:14:48;;;;;;;;;;;;;;;13.37;57.29;101058.58;1671300;84;26194;-60
2022/07/13 03:17:16;;;;;;;;;;;;;;;13.40;57.38;101056.94;1662295;84;25698;-60
2022/07/13 03:19:43;;;;;;;;;;;;;;;13.42;57.11;101054.95;1677789;85;28269;-60
2022/07/13 03:22:10;;;;;;;;;;;;;;;13.44;57.22;101056.17;1653318;84;25867;-61
2022/07/13 03:24:38;;;;;;;;;;;;;;;13.46;57.27;101053.66;1677593;84;25890;-61
2022/07/13 03:27:05;;;;;;;;;;;;;;;13.49;57.32;101055.73;1659956;84;26109;-60
2022/07/13 03:29:32;;;;;;;;;;;;;;;13.48;57.15;101054.86;1672642;84;25680;-61
2022/07/13 03:31:59;;;;;;;;;;;;;;;13.48;57.32;101049.97;1659805;84;28427;-60
2022/07/13 03:34:27;;;;;;;;;;;;;;;13.48;57.43;101048.10;1670422;84;25710;-59
2022/07/13 03:36:53;;;;;;;;;;;;;;;13.50;57.42;101047.46;1654586;84;25437;-59
2022/07/13 03:39:20;;;;;;;;;;;;;;;13.54;57.35;101043.95;1673579;84;26114;-59
2022/07/13 03:41:47;;;;;;;;;;;;;;;13.59;57.07;101047.05;1681352;84;25967;-59
2022/07/13 03:44:15;;;;;;;;;;;;;;;13.60;57.43;101040.16;1672551;85;27540;-59
2022/07/13 03:46:42;;;;;;;;;;;;;;;13.63;57.24;101036.30;1693885;83;25765;-59
2022/07/13 03:49:10;;;;;;;;;;;;;;;13.67;57.09;101030.93;1703360;83;25898;-60
2022/07/13 03:51:39;;;;;;;;;;;;;;;13.74;57.07;101032.05;1710255;83;26817;-59
2022/07/13 03:54:06;;;;;;;;;;;;;;;13.80;57.13;101021.14;1703798;82;25824;-59
2022/07/13 03:56:34;;;;;;;;;;;;;;;13.86;57.05;101021.88;1687875;83;28331;-59
2022/07/13 03:59:01;;;;;;;;;;;;;;;13.92;57.15;101017.72;1682887;83;25731;-60
2022/07/13 04:01:27;;;;;;;;;;;;;;;14.01;57.09;101019.52;1672554;83;25513;-59
2022/07/13 04:03:55;;;;;;;;;;;;;;;14.16;57.18;101014.91;1673706;83;26124;-59
2022/07/13 04:06:21;;;;;;;;;;;;;;;14.26;56.84;101017.05;1677297;83;25937;-60
2022/07/13 04:08:49;;;;;;;;;;;;;;;14.37;56.56;101013.25;1681970;82;27500;-59
2022/07/13 04:11:15;;;;;;;;;;;;;;;14.51;55.67;101007.30;1668307;82;25807;-60
2022/07/13 04:13:43;;;;;;;;;;;;;;;14.66;55.39;101010.30;1674333;84;25865;-59
2022/07/13 04:16:10;;;;;;;;;;;;;;;14.81;54.40;101004.34;1650682;85;26113;-59
2022/07/13 04:18:38;;;;;;;;;;;;;;;14.97;54.29;101006.32;1663253;84;25781;-59
2022/07/13 04:21:07;;;;;;;;;;;;;;;15.13;53.87;101015.03;1675606;84;27572;-60
2022/07/13 04:23:34;;;;;;;;;;;;;;;15.28;52.67;100995.83;1653029;84;25819;-59
2022/07/13 04:26:01;;;;;;;;;;;;;;;15.46;52.93;100999.80;1669713;84;25925;-59
2022/07/13 04:28:28;;;;;;;;;;;;;;;15.60;52.21;100994.26;1668188;83;26246;-59
2022/07/13 04:30:55;;;;;;;;;;;;;;;15.74;51.37;101000.92;1676780;84;25809;-59
2022/07/13 04:33:23;;;;;;;;;;;;;;;15.91;51.17;101002.34;1663423;84;27695;-59
2022/07/13 04:35:50;;;;;;;;;;;;;;;16.08;51.02;101009.51;1666298;84;25769;-59
2022/07/13 04:38:16;;;;;;;;;;;;;;;16.23;49.49;100999.34;1668146;84;26940;-59
2022/07/13 04:40:46;;;;;;;;;;;;;;;16.37;49.04;101004.61;1665826;84;26120;-60
2022/07/13 04:43:12;;;;;;;;;;;;;;;16.49;49.19;101001.91;1667092;84;25886;-59
2022/07/13 04:45:39;;;;;;;;;;;;;;;16.58;48.53;100996.82;1662175;83;27535;-59
2022/07/13 04:48:06;;;;;;;;;;;;;;;16.72;47.97;100996.64;1690980;83;25953;-59
2022/07/13 04:50:32;;;;;;;;;;;;;;;16.85;47.47;101005.63;1697179;82;25824;-59
2022/07/13 04:53:02;;;;;;;;;;;;;;;16.94;47.79;100998.84;1700138;83;26162;-59
2022/07/13 04:55:29;;;;;;;;;;;;;;;17.00;47.25;100989.50;1700958;82;25877;-59
2022/07/13 04:57:57;;;;;;;;;;;;;;;17.10;47.43;100988.47;1681272;83;27544;-57
2022/07/13 05:00:26;;;;;;;;;;;;;;;17.16;47.35;100983.19;1654294;84;25747;-59
2022/07/13 05:02:52;;;;;;;;;;;;;;;17.25;47.02;100986.71;1664802;84;26563;-60
2022/07/13 05:05:19;;;;;;;;;;;;;;;17.35;46.32;100984.64;1670822;83;26066;-60
2022/07/13 05:07:46;;;;;;;;;;;;;;;17.43;46.88;100982.91;1706459;82;25518;-60
2022/07/13 05:10:13;;;;;;;;;;;;;;;17.52;46.13;100980.48;1709227;83;27918;-58
2022/07/13 05:12:42;;;;;;;;;;;;;;;17.60;46.52;100980.97;1676783;83;25794;-59
2022/07/13 05:15:10;;;;;;;;;;;;;;;17.66;46.17;100980.25;1675603;83;25478;-59
2022/07/13 05:17:39;;;;;;;;;;;;;;;17.74;46.52;100986.17;1678422;83;26078;-60
2022/07/13 05:20:08;;;;;;;;;;;;;;;17.79;46.23;100987.34;1677952;83;25878;-60
2022/07/13 05:22:36;;;;;;;;;;;;;;;17.86;45.97;100982.00;1677570;83;27475;-60
2022/07/13 05:25:04;;;;;;;;;;;;;;;17.92;45.94;100980.44;1684503;83;25872;-60
2022/07/13 05:27:31;;;;;;;;;;;;;;;17.98;45.79;100972.44;1667368;84;25885;-60
2022/07/13 05:29:58;;;;;;;;;;;;;;;18.06;45.67;100976.13;1665154;84;26103;-59
2022/07/13 05:32:27;;;;;;;;;;;;;;;18.15;45.63;100977.23;1683462;83;25798;-61
2022/07/13 05:34:54;;;;;;;;;;;;;;;18.25;45.45;100980.23;1677187;83;27452;-60
2022/07/13 05:37:22;;;;;;;;;;;;;;;18.32;45.13;100980.36;1668360;83;25459;-59
2022/07/13 05:39:48;;;;;;;;;;;;;;;18.40;44.98;100971.63;1672911;84;25733;-59
2022/07/13 05:42:16;;;;;;;;;;;;;;;18.48;45.03;100967.97;1668894;83;26180;-59
2022/07/13 05:44:42;;;;;;;;;;;;;;;18.57;45.18;100976.93;1685479;83;25856;-59
2022/07/13 05:47:09;;;;;;;;;;;;;;;18.62;44.88;100967.67;1666484;83;27489;-57
2022/07/13 05:49:37;;;;;;;;;;;;;;;18.71;44.89;100969.81;1673278;84;25811;-60
2022/07/13 05:52:04;;;;;;;;;;;;;;;18.77;44.98;100965.84;1665405;83;26126;-59
2022/07/13 05:54:32;;;;;;;;;;;;;;;18.84;44.96;100971.91;1667677;84;26084;-60
2022/07/13 05:56:59;;;;;;;;;;;;;;;18.89;44.05;100972.18;1674890;84;25717;-60
2022/07/13 05:59:28;;;;;;;;;;;;;;;18.95;44.36;100967.89;1691744;82;28249;-60
2022/07/13 06:01:55;;;;;;;;;;;;;;;18.98;44.20;100964.28;1700388;81;26051;-60
2022/07/13 06:04:22;;;;;;;;;;;;;;;19.07;44.17;100963.69;1717002;81;25845;-60
2022/07/13 06:06:48;;;;;;;;;;;;;;;19.12;44.00;100954.94;1703686;82;26211;-60
2022/07/13 06:09:15;;;;;;;;;;;;;;;19.20;43.77;100961.12;1711023;83;25904;-60
2022/07/13 06:11:42;;;;;;;;;;;;;;;19.31;43.24;100965.78;1682138;82;31043;-59
2022/07/13 06:14:09;;;;;;;;;;;;;;;19.50;42.27;100962.97;1653853;84;25823;-59
2022/07/13 06:16:36;;;;;;;;;;;;;;;19.78;41.69;100964.98;1666163;84;25924;-60
2022/07/13 06:19:03;;;;;;;;;;;;;;;20.07;41.39;100961.87;1657609;84;27033;-60
2022/07/13 06:21:29;;;;;;;;;;;;;;;20.37;40.22;100964.47;1670327;83;25860;-60
2022/07/13 06:23:56;;;;;;;;;;;;;;;20.59;39.54;100971.59;1671390;84;27859;-60
2022/07/13 06:26:23;;;;;;;;;;;;;;;20.75;38.58;100965.55;1673379;84;25893;-59
2022/07/13 06:28:49;;;;;;;;;;;;;;;20.88;38.88;100968.91;1668702;84;25871;-59
2022/07/13 06:31:16;;;;;;;;;;;;;;;20.99;38.87;100966.13;1675331;84;26789;-60
2022/07/13 06:33:42;;;;;;;;;;;;;;;21.04;37.49;100969.09;1668412;83;25806;-57
2022/07/13 06:36:09;;;;;;;;;;;;;;;21.09;37.39;100972.09;1684892;83;27470;-59
2022/07/13 06:38:35;;;;;;;;;;;;;;;21.08;37.48;100973.13;1687217;84;25913;-61
2022/07/13 06:41:02;;;;;;;;;;;;;;;21.14;37.67;100966.84;1657165;84;25806;-60
2022/07/13 06:43:28;;;;;;;;;;;;;;;21.33;37.98;100956.21;1656071;84;26069;-60
2022/07/13 06:45:56;;;;;;;;;;;;;;;21.49;37.05;100955.86;1651720;86;25528;-61
2022/07/13 06:48:22;;;;;;;;;;;;;;;21.66;36.80;100963.73;1647628;85;29577;-61
2022/07/13 06:50:50;;;;;;;;;;;;;;;21.78;35.96;100944.30;1640188;86;27286;-61
2022/07/13 06:53:17;;;;;;;;;;;;;;;21.87;36.02;100957.30;1606245;86;25902;-61
2022/07/13 06:55:43;;;;;;;;;;;;;;;21.94;35.89;100950.44;1649161;86;27035;-60
2022/07/13 06:58:10;;;;;;;;;;;;;;;21.99;36.19;100944.66;1619156;86;27325;-60
2022/07/13 07:00:36;;;;;;;;;;;;;;;21.99;35.37;100946.58;1622764;86;27544;-61
2022/07/13 07:03:03;;;;;;;;;;;;;;;21.95;35.61;100943.92;1647383;86;25766;-61
2022/07/13 07:05:30;;;;;;;;;;;;;;;21.93;35.28;100955.59;1648514;85;25860;-61
2022/07/13 07:07:59;;;;;;;;;;;;;;;21.85;35.35;100973.91;1652927;86;26070;-61
2022/07/13 07:10:26;;;;;;;;;;;;;;;21.92;35.54;100951.20;1656848;85;25830;-60
2022/07/13 07:12:52;;;;;;;;;;;;;;;21.93;35.65;100949.61;1629012;86;28208;-61
2022/07/13 07:15:19;;;;;;;;;;;;;;;22.00;35.74;100955.94;1627262;86;25977;-60
2022/07/13 07:17:47;;;;;;;;;;;;;;;22.07;35.22;100955.96;1628311;86;25478;-60
2022/07/13 07:20:14;;;;;;;;;;;;;;;22.10;35.15;100962.37;1639167;86;26270;-60
2022/07/13 07:22:40;;;;;;;;;;;;;;;22.10;35.04;100955.53;1637576;86;25833;-61
2022/07/13 07:25:08;;;;;;;;;;;;;;;22.12;35.51;100958.08;1630032;86;27544;-60
2022/07/13 07:27:36;;;;;;;;;;;;;;;22.16;35.71;100951.97;1647142;86;26469;-60
2022/07/13 07:30:04;;;;;;;;;;;;;;;22.18;35.55;100948.51;1646599;86;25785;-60
2022/07/13 07:32:30;;;;;;;;;;;;;;;22.21;35.58;100958.20;1628425;86;26711;-60
2022/07/13 07:34:57;;;;;;;;;;;;;;;22.14;34.91;100965.03;1630212;86;25750;-60
2022/07/13 07:37:23;;;;;;;;;;;;;;;22.05;35.24;100967.65;1638518;86;27556;-59
2022/07/13 07:39:53;;;;;;;;;;;;;;;21.89;35.18;100966.98;1645184;86;25851;-60
2022/07/13 07:42:20;;;;;;;;;;;;;;;21.81;35.39;100964.44;1646385;86;25471;-60
2022/07/13 07:44:47;;;;;;;;;;;;;;;21.76;35.41;100969.67;1634632;86;26185;-60
2022/07/13 07:47:15;;;;;;;;;;;;;;;21.75;35.64;100965.24;1618773;86;26003;-61
2022/07/13 07:49:43;;;;;;;;;;;;;;;21.66;35.58;100979.66;1610474;86;27563;-61
2022/07/13 07:52:10;;;;;;;;;;;;;;;21.63;35.88;100979.22;1615226;86;25945;-58
2022/07/13 07:54:37;;;;;;;;;;;;;;;21.57;35.85;100984.95;1616370;86;25482;-60
2022/07/13 07:57:03;;;;;;;;;;;;;;;21.50;36.08;100978.08;1613286;87;27006;-60
2022/07/13 07:59:30;;;;;;;;;;;;;;;21.42;36.05;100987.83;1651159;84;25817;-59
2022/07/13 08:01:56;;;;;;;;;;;;;;;21.39;36.21;100993.19;1640892;85;27489;-59
2022/07/13 08:04:23;;;;;;;;;;;;;;;21.31;36.37;100981.55;1635916;86;25739;-59
2022/07/13 08:06:50;;;;;;;;;;;;;;;21.25;36.66;100980.47;1638182;86;25809;-59
2022/07/13 08:09:16;;;;;;;;;;;;;;;21.29;36.80;100987.23;1636880;86;26261;-61
2022/07/13 08:11:42;;;;;;;;;;;;;;;21.26;36.74;100984.39;1623500;86;25895;-60
2022/07/13 08:14:09;;;;;;;;;;;;;;;21.28;36.79;100989.66;1629566;86;29560;-61
2022/07/13 08:16:36;;;;;;;;;;;;;;;21.37;36.98;100988.44;1640753;86;25844;-60
2022/07/13 08:19:02;;;;;;;;;;;;;;;21.38;36.73;100985.20;1647476;86;25766;-60
2022/07/13 08:21:28;;;;;;;;;;;;;;;21.40;36.22;100985.81;1643355;86;26096;-60
2022/07/13 08:23:55;;;;;;;;;;;;;;;21.40;36.15;100983.94;1630604;86;25900;-60
2022/07/13 08:26:24;;;;;;;;;;;;;;;21.42;36.19;100983.73;1642898;86;27591;-61
2022/07/13 08:28:52;;;;;;;;;;;;;;;21.45;36.40;100979.22;1631305;86;25855;-61
2022/07/13 08:31:22;;;;;;;;;;;;;;;21.42;36.06;100987.83;1635071;86;25850;-61
2022/07/13 08:39:21;;;;;;;;;;;;;;;21.49;36.78;100994.71;1683681;84;28423;-60
2022/07/13 08:41:48;;;;;;;;;;;;;;;21.43;37.32;101009.52;1666402;83;25861;-61
2022/07/13 08:44:15;;;;;;;;;;;;;;;21.36;37.83;101004.53;1668748;84;25884;-60
2022/07/13 08:46:42;;;;;;;;;;;;;;;21.28;37.93;100999.23;1682385;83;26043;-60
2022/07/13 08:49:10;;;;;;;;;;;;;;;21.21;38.21;100994.25;1693246;83;26019;-60
2022/07/13 08:51:38;;;;;;;;;;;;;;;21.18;38.83;101002.84;1697547;83;27471;-60
2022/07/13 08:54:05;;;;;;;;;;;;;;;21.13;38.91;101010.28;1693092;82;25782;-59
2022/07/13 08:56:35;;;;;;;;;;;;;;;21.09;39.76;101009.02;1708166;82;25826;-60
2022/07/13 08:59:02;;;;;;;;;;;;;;;21.05;40.98;101018.14;1688787;83;26116;-61
2022/07/13 09:01:29;;;;;;;;;;;;;;;21.02;41.87;101027.27;1691782;83;25900;-61
2022/07/13 09:03:56;;;;;;;;;;;;;;;20.94;42.92;101029.09;1696892;83;27650;-61
2022/07/13 09:06:43;;;;;;;;;;;;;;;20.90;43.87;101034.65;1706734;83;25941;-61
2022/07/13 09:09:35;;;;;;;;;;;;;;;20.85;44.78;101046.69;1662992;82;25941;-60
2022/07/13 09:12:19;;;;;;;;;;;;;;;20.86;45.31;101040.71;1693998;83;26100;-60
2022/07/13 09:14:56;;;;;;;;;;;;;;;21.03;45.71;101045.34;1708050;83;25698;-61
2022/07/13 09:17:29;;;;;;;;;;;;;;;21.21;49.01;101048.96;1670087;83;28599;-62
2022/07/13 09:19:57;;;;;;;;;;;;;;;21.24;49.50;101050.77;1678623;83;26424;-60
2022/07/13 09:22:24;;;;;;;;;;;;;;;21.22;49.59;101052.02;1660471;83;25804;-61
2022/07/13 09:24:56;;;;;;;;;;;;;;;21.22;50.42;101053.39;1670598;84;26713;-60
2022/07/13 09:27:23;;;;;;;;;;;;;;;21.18;50.24;101061.66;1671457;84;25515;-61
2022/07/13 09:29:49;;;;;;;;;;;;;;;21.20;50.09;101058.20;1678001;84;26860;-61
2022/07/13 09:32:16;;;;;;;;;;;;;;;21.13;49.69;101062.26;1673744;83;25866;-61
2022/07/13 09:34:51;;;;;;;;;;;;;;;20.99;49.17;101061.84;1664391;83;25445;-61
2022/07/13 09:37:21;;;;;;;;;;;;;;;20.79;49.44;101061.16;1673723;83;26153;-61
2022/07/13 09:40:06;;;;;;;;;;;;;;;20.51;48.60;101057.81;1665092;84;25908;-60
2022/07/13 09:42:33;;;;;;;;;;;;;;;20.35;48.85;101063.53;1662122;83;27592;-60
2022/07/13 09:47:53;;;;;;;;;;;;;;;20.06;49.61;101061.21;1669820;84;25895;-60
2022/07/13 09:50:22;;;;;;;;;;;;;;;19.89;49.48;101055.98;1670245;85;26094;-60
2022/07/13 09:52:51;;;;;;;;;;;;;;;19.74;50.67;101066.88;1663463;83;25740;-60
2022/07/13 09:55:21;;;;;;;;;;;;;;;19.68;51.33;101065.75;1666472;83;27434;-60
2022/07/13 09:57:50;;;;;;;;;;;;;;;19.52;51.74;101063.22;1668533;84;25798;-60
2022/07/13 10:00:20;;;;;;;;;;;;;;;19.46;51.74;101069.45;1672086;83;25808;-60
2022/07/13 10:02:48;;;;;;;;;;;;;;;19.50;53.20;101076.20;1662844;84;26148;-59
2022/07/13 10:05:18;;;;;;;;;;;;;;;19.42;53.41;101076.30;1674541;83;25671;-59
2022/07/13 10:07:47;;;;;;;;;;;;;;;19.41;54.08;101074.63;1673055;84;27089;-59
2022/07/13 10:10:15;;;;;;;;;;;;;;;19.42;53.66;101077.16;1671488;83;25459;-60
2022/07/13 10:12:43;;;;;;;;;;;;;;;19.43;53.62;101070.67;1671877;83;25478;-60
2022/07/13 10:15:11;;;;;;;;;;;;;;;19.57;53.26;101056.70;1674316;84;26150;-60
2022/07/13 10:17:38;;;;;;;;;;;;;;;19.59;53.75;101063.33;1666327;84;26057;-60
2022/07/13 10:20:15;;;;;;;;;;;;;;;19.61;53.82;101052.54;1683279;84;27617;-61
2022/07/13 10:22:46;;;;;;;;;;;;;;;19.74;54.22;101053.77;1671078;83;25742;-61
2022/07/13 10:25:13;;;;;;;;;;;;;;;19.82;53.08;101050.93;1651413;83;25762;-60
2022/07/13 10:27:43;;;;;;;;;;;;;;;19.83;53.78;101052.62;1676902;83;26103;-61
2022/07/13 10:30:13;;;;;;;;;;;;;;;19.95;53.66;101046.19;1669515;83;25709;-61
2022/07/13 10:32:40;;;;;;;;;;;;;;;19.97;52.89;101051.77;1667250;84;26837;-60
2022/07/13 10:35:12;;;;;;;;;;;;;;;20.03;52.79;101046.59;1676194;83;25834;-61
2022/07/13 10:38:00;;;;;;;;;;;;;;;20.05;52.79;101038.53;1675905;84;25815;-60
2022/07/13 10:40:29;;;;;;;;;;;;;;;20.03;52.55;101034.31;1667692;84;26122;-61
2022/07/13 10:43:05;;;;;;;;;;;;;;;20.06;52.41;101036.13;1678603;84;25858;-60
2022/07/13 10:45:38;;;;;;;;;;;;;;;20.08;52.38;101035.40;1652074;85;29572;-60
2022/07/13 10:48:26;;;;;;;;;;;;;;;20.15;52.23;101035.48;1634175;86;25548;-60
2022/07/13 10:50:58;;;;;;;;;;;;;;;20.25;51.35;101017.42;1629982;86;25782;-59
2022/07/13 10:53:43;;;;;;;;;;;;;;;20.30;51.63;101017.17;1634412;85;26211;-59
2022/07/13 10:56:20;;;;;;;;;;;;;;;20.45;52.28;101013.52;1628902;86;25851;-59
2022/07/13 10:58:49;;;;;;;;;;;;;;;20.57;52.54;101017.42;1603282;86;26961;-60
2022/07/13 11:01:36;;;;;;;;;;;;;;;20.60;52.12;101024.38;1612536;86;25958;-60
2022/07/13 11:04:04;;;;;;;;;;;;;;;20.61;52.07;101009.67;1627396;86;25821;-60
2022/07/13 11:06:32;;;;;;;;;;;;;;;20.54;52.11;101008.24;1623727;86;26195;-60
2022/07/13 11:09:15;;;;;;;;;;;;;;;20.55;52.41;101008.57;1672103;83;26626;-59
2022/07/13 11:11:46;;;;;;;;;;;;;;;20.57;52.32;101009.23;1667748;84;27610;-60
2022/07/13 11:14:39;;;;;;;;;;;;;;;20.53;52.53;101014.75;1668089;84;25927;-60
2022/07/13 11:17:17;;;;;;;;;;;;;;;20.46;52.54;101009.21;1672899;84;25746;-60
2022/07/13 11:19:56;;;;;;;;;;;;;;;20.39;52.74;101015.67;1669181;83;26170;-60
2022/07/13 11:22:25;;;;;;;;;;;;;;;20.26;53.58;101017.76;1664465;84;25917;-60
2022/07/13 11:25:14;;;;;;;;;;;;;;;20.13;53.36;101035.68;1693328;82;27575;-60
2022/07/13 11:27:56;;;;;;;;;;;;;;;20.02;52.85;101025.25;1692579;82;25805;-60
2022/07/13 11:30:28;;;;;;;;;;;;;;;19.96;53.56;101037.79;1699571;82;25780;-59
2022/07/13 11:32:55;;;;;;;;;;;;;;;19.89;52.86;101046.42;1705893;82;26594;-61
2022/07/13 11:35:24;;;;;;;;;;;;;;;19.81;53.21;101045.97;1697465;82;25490;-61
2022/07/13 11:37:52;;;;;;;;;;;;;;;19.67;53.37;101049.08;1707647;82;27463;-61
2022/07/13 11:40:30;;;;;;;;;;;;;;;19.59;53.31;101056.50;1693163;82;26491;-59
2022/07/13 11:43:02;;;;;;;;;;;;;;;19.60;53.01;101055.47;1680784;83;37863;-61
2022/07/13 11:45:31;;;;;;;;;;;;;;;19.59;53.28;101058.70;1696564;81;27082;-61
2022/07/13 11:47:59;;;;;;;;;;;;;;;19.61;53.23;101051.71;1695616;83;26032;-61
2022/07/13 11:50:43;;;;;;;;;;;;;;;19.65;53.48;101062.56;1683714;83;27536;-60
2022/07/13 11:53:28;;;;;;;;;;;;;;;19.59;53.58;101057.34;1684759;83;25954;-60
2022/07/13 11:56:06;;;;;;;;;;;;;;;19.60;53.71;101063.66;1698134;83;25940;-60
2022/07/13 11:58:35;;;;;;;;;;;;;;;19.45;54.03;101067.75;1694514;83;26279;-60
2022/07/13 12:01:11;;;;;;;;;;;;;;;19.31;54.75;101051.20;1676673;83;25844;-61
2022/07/13 12:03:39;;;;;;;;;;;;;;;19.34;55.09;101051.34;1674818;83;27087;-61
2022/07/13 12:06:09;;;;;;;;;;;;;;;19.35;55.02;101048.94;1649444;84;25802;-61
2022/07/13 12:08:38;;;;;;;;;;;;;;;19.35;55.15;101040.77;1644412;86;25530;-61
2022/07/13 12:11:08;;;;;;;;;;;;;;;19.39;55.26;101034.74;1668318;84;26246;-61
2022/07/13 12:13:36;;;;;;;;;;;;;;;19.43;54.80;101037.07;1649426;86;25874;-61
2022/07/13 12:16:05;;;;;;;;;;;;;;;19.46;54.67;101042.16;1665308;85;27469;-61
2022/07/13 12:18:51;;;;;;;;;;;;;;;19.45;55.22;101035.01;1651793;85;26429;-61
2022/07/13 12:21:18;;;;;;;;;;;;;;;19.49;55.13;101027.63;1668817;84;25824;-61
2022/07/13 12:23:48;;;;;;;;;;;;;;;19.55;54.91;101026.86;1640931;85;28230;-61
2022/07/13 12:26:15;;;;;;;;;;;;;;;19.60;54.89;101020.00;1669092;85;25782;-61
2022/07/13 12:28:42;;;;;;;;;;;;;;;19.49;54.56;101026.79;1655769;84;27487;-61
2022/07/13 12:31:09;;;;;;;;;;;;;;;19.46;55.03;101032.08;1649533;85;26201;-61
2022/07/13 12:33:46;;;;;;;;;;;;;;;19.44;54.78;101035.54;1642035;84;25811;-61
2022/07/13 12:36:11;;;;;;;;;;;;;;;19.45;55.26;101037.73;1639902;86;26990;-60
2022/07/13 12:39:07;;;;;;;;;;;;;;;19.44;56.04;101038.27;1652351;85;25885;-61
2022/07/13 12:41:34;;;;;;;;;;;;;;;19.40;55.84;101041.03;1646534;85;27548;-60
2022/07/13 12:44:04;;;;;;;;;;;;;;;19.44;56.69;101026.48;1653130;86;26124;-60
2022/07/13 12:46:50;;;;;;;;;;;;;;;19.46;57.17;101032.08;1651603;86;25491;-60
2022/07/13 12:49:16;;;;;;;;;;;;;;;19.50;56.95;101027.09;1655321;85;26917;-60
2022/07/13 12:51:49;;;;;;;;;;;;;;;19.56;56.79;101029.08;1647300;86;26277;-60